Time;durP1;ratioP1;P1;durP2;ratioP2;P2;SDS_P1;SDS_P2;PMS_P1;PMS_P2;Temp;Humidity;BMP_temperature;BMP_pressure;BME280_temperature;BME280_humidity;BME280_pressure;Samples;Min_cycle;Max_cycle;Signal;HPM_P1;HPM_P2
2023/12/10 00:01:32;;;;;;;23.13;5.47;;;11.30;46.90;;;;;;5027378;28;20201;-83
2023/12/10 00:03:57;;;;;;;20.23;5.27;;;11.30;47.50;;;;;;5027324;28;20650;-84
2023/12/10 00:06:23;;;;;;;22.77;5.60;;;11.20;49.40;;;;;;5026945;28;20378;-81
2023/12/10 00:08:49;;;;;;;17.77;4.57;;;11.20;50.40;;;;;;5027426;28;20217;-82
2023/12/10 00:11:15;;;;;;;21.53;5.17;;;11.20;46.20;;;;;;5027438;28;20645;-82
2023/12/10 00:13:41;;;;;;;22.00;5.53;;;11.20;48.60;;;;;;5027421;28;20204;-82
2023/12/10 00:16:07;;;;;;;21.00;5.23;;;11.20;49.20;;;;;;5029749;28;20307;-84
2023/12/10 00:18:32;;;;;;;21.50;5.20;;;11.20;47.80;;;;;;5041532;28;20241;-82
2023/12/10 00:20:58;;;;;;;19.10;4.53;;;11.20;46.00;;;;;;5039360;28;20249;-82
2023/12/10 00:23:24;;;;;;;17.60;4.93;;;11.20;44.40;;;;;;5036524;28;20216;-82
2023/12/10 00:25:49;;;;;;;20.53;5.57;;;11.20;40.90;;;;;;5033616;28;20217;-82
2023/12/10 00:28:15;;;;;;;16.33;4.57;;;11.20;41.20;;;;;;5033754;28;20184;-83
2023/12/10 00:30:42;;;;;;;18.50;5.20;;;11.20;39.40;;;;;;5031836;28;20669;-82
2023/12/10 00:33:09;;;;;;;14.33;4.43;;;11.20;40.00;;;;;;5031082;28;20269;-83
2023/12/10 00:35:35;;;;;;;16.37;5.53;;;11.20;36.00;;;;;;5034265;28;20178;-83
2023/12/10 00:38:01;;;;;;;16.83;4.23;;;11.20;32.40;;;;;;5033992;28;20184;-82
2023/12/10 00:40:26;;;;;;;21.07;5.23;;;11.20;32.60;;;;;;5029983;28;20194;-83
2023/12/10 00:42:52;;;;;;;22.47;4.90;;;11.20;31.50;;;;;;5030144;28;20187;-83
2023/12/10 00:45:18;;;;;;;19.47;4.87;;;11.20;14.80;;;;;;5029794;28;20560;-83
2023/12/10 00:47:44;;;;;;;18.10;4.63;;;11.20;1.00;;;;;;5029097;28;20181;-82
2023/12/10 00:50:09;;;;;;;16.23;3.90;;;11.20;1.00;;;;;;5027884;28;20170;-84
2023/12/10 00:52:37;;;;;;;17.93;4.93;;;11.20;1.00;;;;;;5032329;28;20185;-81
2023/12/10 00:55:03;;;;;;;11.60;2.97;;;11.10;1.00;;;;;;5034711;28;20536;-81
2023/12/10 00:57:28;;;;;;;14.87;4.37;;;11.10;1.00;;;;;;5034445;28;20253;-83
2023/12/10 00:59:54;;;;;;;15.73;3.87;;;11.10;1.00;;;;;;5033482;28;20264;-82
2023/12/10 01:02:20;;;;;;;17.77;4.23;;;11.10;1.00;;;;;;5033975;28;20181;-82
2023/12/10 01:04:45;;;;;;;15.23;4.23;;;11.10;1.00;;;;;;5031085;28;20239;-83
2023/12/10 01:07:11;;;;;;;15.13;3.73;;;11.10;1.00;;;;;;5031703;28;20693;-83
2023/12/10 01:09:38;;;;;;;15.50;4.27;;;11.10;1.00;;;;;;5031129;28;20312;-82
2023/12/10 01:12:06;;;;;;;12.80;3.73;;;11.10;1.00;;;;;;5031128;28;20220;-82
2023/12/10 01:14:31;;;;;;;18.63;3.93;;;11.10;1.00;;;;;;5030935;28;20204;-82
2023/12/10 01:16:57;;;;;;;21.50;4.47;;;11.10;1.00;;;;;;5031132;28;20537;-81
2023/12/10 01:19:23;;;;;;;19.10;4.90;;;11.00;1.00;;;;;;5030813;28;20681;-86
2023/12/10 01:21:52;;;;;;;13.43;4.07;;;11.10;1.00;;;;;;5032808;28;20192;-83
2023/12/10 01:24:20;;;;;;;19.13;5.20;;;11.10;1.00;;;;;;5032087;28;20261;-83
2023/12/10 01:26:45;;;;;;;16.37;4.47;;;11.00;1.00;;;;;;5033127;28;20220;-83
2023/12/10 01:29:11;;;;;;;18.30;4.67;;;11.00;1.00;;;;;;5030442;28;20653;-83
2023/12/10 01:31:37;;;;;;;14.20;4.17;;;11.00;1.00;;;;;;5030755;28;20185;-82
2023/12/10 01:34:03;;;;;;;14.57;4.63;;;11.00;1.00;;;;;;5030180;28;20178;-82
2023/12/10 01:36:29;;;;;;;23.20;4.90;;;11.00;1.00;;;;;;5030003;28;20195;-82
2023/12/10 01:38:56;;;;;;;9.87;3.40;;;11.00;1.00;;;;;;5030246;28;20180;-83
2023/12/10 01:41:23;;;;;;;19.43;4.30;;;11.00;1.00;;;;;;5030248;28;20281;-82
2023/12/10 01:43:49;;;;;;;18.93;4.70;;;11.00;1.00;;;;;;5030252;28;20190;-83
2023/12/10 01:46:16;;;;;;;20.40;5.07;;;11.00;1.00;;;;;;5028869;28;20577;-82
2023/12/10 01:48:44;;;;;;;20.33;4.53;;;11.00;1.00;;;;;;5029660;28;20182;-83
2023/12/10 01:51:10;;;;;;;22.50;5.30;;;11.00;1.00;;;;;;5030252;28;20660;-82
2023/12/10 01:53:38;;;;;;;15.57;4.40;;;11.00;1.70;;;;;;5029062;28;20181;-83
2023/12/10 01:56:08;;;;;;;21.03;4.93;;;11.00;4.80;;;;;;5029997;28;20641;-82
2023/12/10 01:58:35;;;;;;;16.23;4.70;;;11.00;5.20;;;;;;5030564;28;20182;-84
2023/12/10 02:01:01;;;;;;;19.60;4.20;;;10.90;7.20;;;;;;5030914;28;20181;-82
2023/12/10 02:03:29;;;;;;;15.10;4.87;;;10.90;6.50;;;;;;5029358;28;20243;-82
2023/12/10 02:05:55;;;;;;;15.97;4.43;;;10.90;5.50;;;;;;5030675;28;20661;-81
2023/12/10 02:08:22;;;;;;;11.70;3.13;;;10.90;6.10;;;;;;5031037;28;20205;-81
2023/12/10 02:10:48;;;;;;;17.93;5.13;;;10.90;1.00;;;;;;5030457;28;20193;-81
2023/12/10 02:13:14;;;;;;;19.33;4.77;;;10.90;1.00;;;;;;5034391;28;20184;-82
2023/12/10 02:15:39;;;;;;;19.03;4.80;;;11.00;1.00;;;;;;5033005;28;20209;-80
2023/12/10 02:18:05;;;;;;;17.30;5.03;;;11.00;1.00;;;;;;5030123;28;20201;-80
2023/12/10 02:20:31;;;;;;;20.60;5.17;;;11.00;1.00;;;;;;5030653;28;20181;-82
2023/12/10 02:23:23;;;;;;;16.23;4.37;;;11.00;1.00;;;;;;5030899;28;20513;-82
2023/12/10 02:25:50;;;;;;;18.17;4.13;;;11.00;1.00;;;;;;5031386;28;20241;-82
2023/12/10 02:28:22;;;;;;;18.30;4.60;;;11.00;1.00;;;;;;5030899;28;20178;-82
2023/12/10 02:30:47;;;;;;;15.03;4.00;;;11.00;1.00;;;;;;5030638;28;20269;-82
2023/12/10 02:33:13;;;;;;;20.33;5.40;;;11.00;1.00;;;;;;5030181;28;20264;-82
2023/12/10 02:35:39;;;;;;;19.63;4.73;;;11.00;1.00;;;;;;5030706;28;20177;-82
2023/12/10 02:38:04;;;;;;;18.27;4.83;;;11.00;1.00;;;;;;5032700;28;20253;-81
2023/12/10 02:40:30;;;;;;;14.00;5.07;;;11.00;1.00;;;;;;5033207;28;20185;-80
2023/12/10 02:42:56;;;;;;;23.87;4.93;;;11.00;3.00;;;;;;5033990;28;20180;-82
2023/12/10 02:45:22;;;;;;;15.50;4.53;;;11.00;1.00;;;;;;5038430;28;20178;-82
2023/12/10 02:47:48;;;;;;;24.37;5.53;;;11.00;2.40;;;;;;5039400;28;20245;-87
2023/12/10 02:50:13;;;;;;;21.97;5.10;;;11.00;4.30;;;;;;5036147;28;20660;-82
2023/12/10 02:52:39;;;;;;;22.77;5.27;;;11.00;5.20;;;;;;5039371;28;20252;-84
2023/12/10 02:55:06;;;;;;;20.17;4.63;;;11.00;5.80;;;;;;5037053;28;20212;-83
2023/12/10 02:57:32;;;;;;;17.40;4.73;;;11.00;4.10;;;;;;5041693;28;20583;-82
2023/12/10 03:00:00;;;;;;;20.93;5.20;;;11.00;3.20;;;;;;5038823;28;20189;-84
2023/12/10 03:02:26;;;;;;;16.57;4.57;;;11.00;3.90;;;;;;5041373;28;20178;-87
2023/12/10 03:04:51;;;;;;;15.57;4.53;;;11.00;1.40;;;;;;5037591;28;20186;-83
2023/12/10 03:07:17;;;;;;;21.20;6.17;;;11.10;1.10;;;;;;5030767;28;20263;-82
2023/12/10 03:09:44;;;;;;;14.60;4.37;;;11.00;1.00;;;;;;5030814;28;20193;-82
2023/12/10 03:12:10;;;;;;;22.73;5.83;;;11.00;1.00;;;;;;5030656;28;20182;-81
2023/12/10 03:14:35;;;;;;;16.60;4.47;;;11.00;1.00;;;;;;5031921;28;20166;-83
2023/12/10 03:17:01;;;;;;;15.00;4.60;;;11.00;1.00;;;;;;5032132;28;20637;-81
2023/12/10 03:19:27;;;;;;;15.40;4.60;;;11.00;1.00;;;;;;5031675;28;20701;-82
2023/12/10 03:21:52;;;;;;;19.03;5.00;;;11.00;1.00;;;;;;5031413;28;20648;-81
2023/12/10 03:24:18;;;;;;;14.93;4.53;;;11.00;1.00;;;;;;5031250;28;20261;-82
2023/12/10 03:26:44;;;;;;;17.20;4.83;;;11.00;1.00;;;;;;5033990;28;20279;-83
2023/12/10 03:29:09;;;;;;;18.27;4.33;;;11.00;1.00;;;;;;5033220;28;20170;-83
2023/12/10 03:31:35;;;;;;;19.40;4.80;;;11.00;1.00;;;;;;5032561;28;20189;-82
2023/12/10 03:34:01;;;;;;;21.00;5.00;;;11.00;1.00;;;;;;5033210;28;20665;-79
2023/12/10 03:36:26;;;;;;;22.63;5.10;;;11.00;1.00;;;;;;5031379;28;20173;-81
2023/12/10 03:38:52;;;;;;;19.57;4.97;;;11.10;1.00;;;;;;5031992;28;20316;-82
2023/12/10 03:41:18;;;;;;;19.40;5.37;;;11.00;1.00;;;;;;5032349;28;20173;-82
2023/12/10 03:43:43;;;;;;;21.77;5.40;;;11.00;1.00;;;;;;5033495;28;20174;-83
2023/12/10 03:46:09;;;;;;;15.20;4.50;;;11.00;1.00;;;;;;5030498;28;20209;-80
2023/12/10 03:48:35;;;;;;;20.13;4.47;;;11.00;1.00;;;;;;5029646;28;20260;-82
2023/12/10 03:51:00;;;;;;;20.87;4.70;;;11.00;1.00;;;;;;5030272;28;20331;-83
2023/12/10 03:53:26;;;;;;;17.40;5.27;;;11.00;1.00;;;;;;5029953;28;20181;-82
2023/12/10 03:55:52;;;;;;;16.60;4.47;;;10.90;1.00;;;;;;5030989;28;20185;-82
2023/12/10 03:58:17;;;;;;;21.67;4.60;;;10.90;1.00;;;;;;5036719;28;20170;-81
2023/12/10 04:00:43;;;;;;;25.30;5.37;;;10.90;1.00;;;;;;5037740;28;20193;-83
2023/12/10 04:03:09;;;;;;;21.53;5.63;;;10.80;1.00;;;;;;5037679;28;20178;-85
2023/12/10 04:05:35;;;;;;;18.50;4.80;;;10.90;1.00;;;;;;5038231;28;20247;-82
2023/12/10 04:08:01;;;;;;;23.13;5.67;;;10.90;1.00;;;;;;5036990;28;20240;-82
2023/12/10 04:10:27;;;;;;;15.10;4.47;;;10.90;1.00;;;;;;5038250;28;20190;-83
2023/12/10 04:12:52;;;;;;;24.63;4.93;;;10.80;1.30;;;;;;5039751;28;20185;-84
2023/12/10 04:15:18;;;;;;;19.53;4.90;;;10.80;3.10;;;;;;5041168;28;20256;-86
2023/12/10 04:17:44;;;;;;;23.67;5.60;;;10.80;2.60;;;;;;5042281;28;20677;-85
2023/12/10 04:20:10;;;;;;;18.50;4.73;;;10.80;4.40;;;;;;5041304;28;20169;-86
2023/12/10 04:22:36;;;;;;;24.67;5.43;;;10.80;5.50;;;;;;5041796;28;20182;-81
2023/12/10 04:25:02;;;;;;;21.17;5.00;;;10.90;4.30;;;;;;5041804;28;20712;-83
2023/12/10 04:27:28;;;;;;;21.77;5.07;;;10.90;4.80;;;;;;5044968;28;20217;-83
2023/12/10 04:29:54;;;;;;;17.63;4.80;;;10.90;4.50;;;;;;5042151;28;20241;-83
2023/12/10 04:32:20;;;;;;;19.67;5.17;;;10.90;5.10;;;;;;5042704;28;20184;-82
2023/12/10 04:34:45;;;;;;;19.13;5.60;;;10.90;5.90;;;;;;5042989;28;20170;-82
2023/12/10 04:37:11;;;;;;;27.53;6.30;;;10.90;7.90;;;;;;5042844;28;20182;-83
2023/12/10 04:39:37;;;;;;;21.60;5.83;;;10.90;10.30;;;;;;5044847;28;20559;-85
2023/12/10 04:42:03;;;;;;;26.27;5.73;;;10.80;13.10;;;;;;5040540;28;20608;-83
2023/12/10 04:44:29;;;;;;;19.67;5.03;;;10.80;16.40;;;;;;5035457;28;20545;-82
2023/12/10 04:46:55;;;;;;;18.67;5.10;;;10.80;17.80;;;;;;5035210;28;20210;-82
2023/12/10 04:49:21;;;;;;;30.63;6.33;;;10.80;19.60;;;;;;5033785;28;20544;-82
2023/12/10 04:51:47;;;;;;;19.23;4.67;;;10.80;19.50;;;;;;5035515;28;20209;-81
2023/12/10 04:54:12;;;;;;;26.23;6.20;;;10.70;19.40;;;;;;5034729;28;20188;-81
2023/12/10 04:56:39;;;;;;;13.23;4.90;;;10.80;19.50;;;;;;5037035;28;20202;-83
2023/12/10 04:59:05;;;;;;;21.97;5.17;;;10.80;20.30;;;;;;5037623;28;20186;-82
2023/12/10 05:01:30;;;;;;;27.57;6.90;;;10.80;20.60;;;;;;5034410;28;20173;-83
2023/12/10 05:03:57;;;;;;;24.73;5.27;;;10.80;21.20;;;;;;5038713;28;20170;-81
2023/12/10 05:06:23;;;;;;;22.73;5.30;;;10.90;20.40;;;;;;5035669;28;20261;-81
2023/12/10 05:08:49;;;;;;;22.63;4.83;;;10.80;21.60;;;;;;5038594;28;20182;-82
2023/12/10 05:11:14;;;;;;;27.50;6.17;;;10.80;22.40;;;;;;5037238;28;20516;-82
2023/12/10 05:13:40;;;;;;;24.37;5.13;;;10.70;26.10;;;;;;5035739;28;20272;-80
2023/12/10 05:16:06;;;;;;;20.40;5.53;;;10.70;29.30;;;;;;5034611;28;20305;-81
2023/12/10 05:18:32;;;;;;;28.13;6.00;;;10.60;30.50;;;;;;5033906;28;20594;-81
2023/12/10 05:20:58;;;;;;;21.60;5.27;;;10.60;32.30;;;;;;5035145;28;20832;-80
2023/12/10 05:23:23;;;;;;;23.27;5.73;;;10.60;33.60;;;;;;5035023;28;20243;-82
2023/12/10 05:25:50;;;;;;;20.97;5.40;;;10.60;33.70;;;;;;5035558;28;20205;-82
2023/12/10 05:28:16;;;;;;;22.53;4.97;;;10.60;33.30;;;;;;5038865;28;20542;-82
2023/12/10 05:30:42;;;;;;;26.70;5.97;;;10.60;34.50;;;;;;5036012;28;20178;-81
2023/12/10 05:33:07;;;;;;;23.97;5.43;;;10.50;35.80;;;;;;5034367;28;20209;-81
2023/12/10 05:35:34;;;;;;;18.97;4.40;;;10.50;39.10;;;;;;5034088;28;20196;-80
2023/12/10 05:38:00;;;;;;;24.13;5.33;;;10.50;41.00;;;;;;5033929;28;20261;-81
2023/12/10 05:40:27;;;;;;;27.10;5.63;;;10.50;42.30;;;;;;5033729;28;20517;-81
2023/12/10 05:42:53;;;;;;;25.20;5.80;;;10.50;45.00;;;;;;5033925;28;20268;-81
2023/12/10 05:45:19;;;;;;;18.57;5.20;;;10.50;46.90;;;;;;5033864;28;20177;-81
2023/12/10 05:47:44;;;;;;;20.53;5.27;;;10.50;47.00;;;;;;5034345;28;20174;-81
2023/12/10 05:50:10;;;;;;;18.40;4.77;;;10.50;48.50;;;;;;5033210;28;20189;-82
2023/12/10 05:52:36;;;;;;;20.17;5.13;;;10.40;49.60;;;;;;5031091;28;20652;-82
2023/12/10 05:55:01;;;;;;;16.97;4.87;;;10.40;47.40;;;;;;5032447;28;20178;-82
2023/12/10 05:57:27;;;;;;;23.17;5.47;;;10.40;46.70;;;;;;5037172;28;20184;-84
2023/12/10 05:59:53;;;;;;;18.17;4.07;;;10.50;41.70;;;;;;5033659;28;20260;-82
2023/12/10 06:02:21;;;;;;;21.37;5.47;;;10.50;38.90;;;;;;5035176;28;20169;-81
2023/12/10 06:04:47;;;;;;;19.57;5.07;;;10.50;38.40;;;;;;5034731;28;20494;-80
2023/12/10 06:07:13;;;;;;;15.13;4.27;;;10.50;37.50;;;;;;5034111;28;20209;-83
2023/12/10 06:09:39;;;;;;;12.07;4.60;;;10.50;36.30;;;;;;5033075;28;20185;-81
2023/12/10 06:12:05;;;;;;;21.03;5.20;;;10.50;34.30;;;;;;5035909;28;20182;-82
2023/12/10 06:14:31;;;;;;;19.47;4.63;;;10.50;35.10;;;;;;5035494;28;20695;-81
2023/12/10 06:16:57;;;;;;;16.37;4.60;;;10.50;34.50;;;;;;5036171;28;20174;-81
2023/12/10 06:19:22;;;;;;;23.03;4.67;;;10.50;36.00;;;;;;5033529;28;20582;-81
2023/12/10 06:21:48;;;;;;;18.53;4.83;;;10.50;36.50;;;;;;5034531;28;20170;-82
2023/12/10 06:24:13;;;;;;;19.40;4.67;;;10.50;37.50;;;;;;5035176;28;20529;-81
2023/12/10 06:26:39;;;;;;;18.93;5.17;;;10.50;38.20;;;;;;5036569;28;20224;-81
2023/12/10 06:29:05;;;;;;;19.03;4.83;;;10.50;39.40;;;;;;5035361;28;20533;-81
2023/12/10 06:31:30;;;;;;;19.03;4.77;;;10.50;40.00;;;;;;5034630;28;20176;-80
2023/12/10 06:33:56;;;;;;;19.53;5.00;;;10.50;40.90;;;;;;5034648;28;20656;-81
2023/12/10 06:36:22;;;;;;;28.67;5.40;;;10.50;42.10;;;;;;5034040;28;20173;-81
2023/12/10 06:38:48;;;;;;;23.00;5.73;;;10.50;45.10;;;;;;5034980;28;20608;-81
2023/12/10 06:41:13;;;;;;;17.13;4.83;;;10.40;48.40;;;;;;5034815;28;20200;-82
2023/12/10 06:43:39;;;;;;;20.07;4.73;;;10.40;50.60;;;;;;5034590;28;20260;-81
2023/12/10 06:46:06;;;;;;;25.83;4.57;;;10.40;52.40;;;;;;5034383;28;20281;-82
2023/12/10 06:48:33;;;;;;;21.03;5.33;;;10.40;52.90;;;;;;5033878;28;20177;-83
2023/12/10 06:51:00;;;;;;;22.33;5.60;;;10.30;55.40;;;;;;5032910;28;20219;-82
2023/12/10 06:53:26;;;;;;;22.10;5.37;;;10.30;57.80;;;;;;5033575;28;20530;-82
2023/12/10 06:55:52;;;;;;;24.40;5.20;;;10.30;57.50;;;;;;5034411;28;20177;-81
2023/12/10 06:58:18;;;;;;;18.93;4.30;;;10.30;59.80;;;;;;5035019;28;20170;-83
2023/12/10 07:00:43;;;;;;;20.90;5.43;;;10.40;60.30;;;;;;5034529;28;20169;-82
2023/12/10 07:03:09;;;;;;;23.90;6.47;;;10.30;66.20;;;;;;5032356;28;20180;-81
2023/12/10 07:05:35;;;;;;;24.13;5.40;;;10.40;66.40;;;;;;5031890;28;20177;-82
2023/12/10 07:08:01;;;;;;;20.93;5.07;;;10.30;69.90;;;;;;5031419;28;20947;-81
2023/12/10 07:10:26;;;;;;;22.40;5.23;;;10.30;72.00;;;;;;5031808;28;20684;-81
2023/12/10 07:12:54;;;;;;;23.63;5.30;;;10.30;75.20;;;;;;5031801;28;20177;-81
2023/12/10 07:15:20;;;;;;;22.37;5.30;;;10.20;78.60;;;;;;5031949;28;20227;-83
2023/12/10 07:17:45;;;;;;;22.57;5.47;;;10.20;81.20;;;;;;5031402;28;20170;-85
2023/12/10 07:20:11;;;;;;;22.57;5.63;;;10.30;80.50;;;;;;5031606;28;20188;-82
2023/12/10 07:22:37;;;;;;;20.70;5.60;;;10.30;82.40;;;;;;5031167;28;20519;-82
2023/12/10 07:25:06;;;;;;;21.77;5.47;;;10.30;81.50;;;;;;5030954;28;20181;-81
2023/12/10 07:27:32;;;;;;;22.63;5.13;;;10.30;82.10;;;;;;5032113;28;20209;-81
2023/12/10 07:29:58;;;;;;;18.33;4.77;;;10.30;83.60;;;;;;5031371;28;20205;-83
2023/12/10 07:32:24;;;;;;;14.77;4.93;;;10.30;83.20;;;;;;5033612;28;20185;-82
2023/12/10 07:34:50;;;;;;;27.07;5.50;;;10.30;84.50;;;;;;5032185;28;20269;-82
2023/12/10 07:37:16;;;;;;;19.10;5.03;;;10.30;83.90;;;;;;5033009;28;20197;-84
2023/12/10 07:39:42;;;;;;;25.47;5.93;;;10.30;85.30;;;;;;5031683;28;20181;-82
2023/12/10 07:42:08;;;;;;;24.27;5.10;;;10.20;87.00;;;;;;5031698;28;20181;-81
2023/12/10 07:44:34;;;;;;;19.17;5.03;;;10.30;87.10;;;;;;5032019;28;20518;-83
2023/12/10 07:47:00;;;;;;;25.83;5.47;;;10.30;87.90;;;;;;5032409;28;20304;-82
2023/12/10 07:49:25;;;;;;;23.50;5.27;;;10.30;86.20;;;;;;5032991;28;20209;-82
2023/12/10 07:51:51;;;;;;;19.37;5.23;;;10.30;86.20;;;;;;5032958;28;20205;-82
2023/12/10 07:54:17;;;;;;;21.73;4.67;;;10.30;83.90;;;;;;5034844;28;20535;-82
2023/12/10 07:56:42;;;;;;;24.20;5.33;;;10.40;82.70;;;;;;5033559;28;20538;-83
2023/12/10 07:59:08;;;;;;;21.63;4.73;;;10.30;80.60;;;;;;5035733;28;20174;-82
2023/12/10 08:01:34;;;;;;;20.47;5.17;;;10.40;80.50;;;;;;5037799;28;20177;-81
2023/12/10 08:03:59;;;;;;;28.37;6.40;;;10.40;78.50;;;;;;5039243;28;20166;-85
2023/12/10 08:06:25;;;;;;;21.00;5.50;;;10.30;81.50;;;;;;5037918;28;20617;-82
2023/12/10 08:08:51;;;;;;;20.97;5.93;;;10.40;81.90;;;;;;5040486;28;20248;-84
2023/12/10 08:11:17;;;;;;;24.03;5.60;;;10.30;80.80;;;;;;5040511;28;20223;-83
2023/12/10 08:13:43;;;;;;;23.83;5.30;;;10.30;85.00;;;;;;5041422;28;20177;-82
2023/12/10 08:16:09;;;;;;;21.50;5.37;;;10.30;83.70;;;;;;5040218;28;20269;-82
2023/12/10 08:18:34;;;;;;;22.20;5.20;;;10.40;87.00;;;;;;5038083;28;20270;-81
2023/12/10 08:21:01;;;;;;;30.13;6.67;;;10.40;83.60;;;;;;5036257;28;20185;-83
2023/12/10 08:23:27;;;;;;;22.57;6.20;;;10.30;83.80;;;;;;5037347;28;20543;-82
2023/12/10 08:25:52;;;;;;;22.90;5.47;;;10.30;84.70;;;;;;5036779;28;20214;-82
2023/12/10 08:28:18;;;;;;;25.30;5.60;;;10.30;80.00;;;;;;5035606;28;20590;-83
2023/12/10 08:30:44;;;;;;;27.37;5.93;;;10.30;81.80;;;;;;5041595;28;20200;-83
2023/12/10 08:33:10;;;;;;;25.87;5.77;;;10.30;85.00;;;;;;5042682;28;20186;-86
2023/12/10 08:35:35;;;;;;;25.50;5.57;;;10.40;81.40;;;;;;5041636;28;20256;-84
2023/12/10 08:38:01;;;;;;;18.20;5.50;;;10.40;77.00;;;;;;5039870;28;20181;-83
2023/12/10 08:40:27;;;;;;;19.10;5.10;;;10.40;75.70;;;;;;5037213;28;20182;-81
2023/12/10 08:42:53;;;;;;;26.80;5.60;;;10.40;77.80;;;;;;5039588;28;20174;-85
2023/12/10 08:45:18;;;;;;;21.73;5.60;;;10.30;81.70;;;;;;5037596;28;20174;-82
2023/12/10 08:47:44;;;;;;;20.87;5.67;;;10.30;86.50;;;;;;5032852;28;20217;-83
2023/12/10 08:50:10;;;;;;;25.33;5.60;;;10.30;90.00;;;;;;5032677;28;20561;-82
2023/12/10 08:52:35;;;;;;;31.63;6.50;;;10.40;89.80;;;;;;5035321;28;20276;-82
2023/12/10 08:55:01;;;;;;;28.20;7.10;;;10.50;90.20;;;;;;5039285;28;20182;-83
2023/12/10 08:57:27;;;;;;;29.07;6.80;;;10.50;89.60;;;;;;5056687;28;20177;-81
2023/12/10 08:59:59;;;;;;;29.40;5.93;;;10.50;90.30;;;;;;5042549;28;20264;-81
2023/12/10 09:02:25;;;;;;;34.57;6.80;;;10.50;91.00;;;;;;5059985;28;20196;-82
2023/12/10 09:04:51;;;;;;;34.40;7.37;;;10.50;91.90;;;;;;5037609;28;20178;-84
2023/12/10 09:07:16;;;;;;;26.47;6.50;;;10.50;93.50;;;;;;5021745;28;20713;-86
2023/12/10 09:09:42;;;;;;;24.70;7.60;;;10.60;94.80;;;;;;5041038;28;20209;-85
2023/12/10 09:12:08;;;;;;;23.53;6.33;;;10.50;95.40;;;;;;5052228;28;20213;-84
2023/12/10 09:14:35;;;;;;;30.70;7.23;;;10.60;96.60;;;;;;5053574;28;20169;-84
2023/12/10 09:17:01;;;;;;;31.87;7.27;;;10.60;98.40;;;;;;5054525;28;20169;-83
2023/12/10 09:19:29;;;;;;;35.37;7.63;;;10.50;99.90;;;;;;5057510;28;20223;-83
2023/12/10 09:21:55;;;;;;;26.30;7.00;;;10.60;99.90;;;;;;5055975;28;20189;-83
2023/12/10 09:24:22;;;;;;;29.13;6.87;;;10.70;99.90;;;;;;5054281;28;20637;-83
2023/12/10 09:26:48;;;;;;;27.43;7.50;;;10.60;99.90;;;;;;5043129;28;20208;-81
2023/12/10 09:29:14;;;;;;;27.07;7.27;;;10.60;99.90;;;;;;5034994;28;20170;-81
2023/12/10 09:31:40;;;;;;;31.17;7.37;;;10.70;99.90;;;;;;5036336;28;20187;-83
2023/12/10 09:34:06;;;;;;;26.10;6.67;;;10.70;99.90;;;;;;5036677;28;20405;-83
2023/12/10 09:36:32;;;;;;;35.37;8.00;;;10.70;99.90;;;;;;5037792;28;20742;-83
2023/12/10 09:38:58;;;;;;;26.37;6.50;;;10.80;99.90;;;;;;5038142;28;20223;-82
2023/12/10 09:41:25;;;;;;;39.03;8.70;;;10.80;99.90;;;;;;5043675;28;20181;-83
2023/12/10 09:43:50;;;;;;;31.03;8.30;;;10.80;99.90;;;;;;5042813;28;20170;-82
2023/12/10 09:46:16;;;;;;;35.50;8.37;;;10.90;99.90;;;;;;5035086;28;20212;-83
2023/12/10 09:48:44;;;;;;;35.93;7.53;;;10.90;99.90;;;;;;5033411;28;20194;-83
2023/12/10 09:51:10;;;;;;;27.30;8.17;;;10.80;99.90;;;;;;5034796;28;20185;-86
2023/12/10 09:53:36;;;;;;;32.73;7.50;;;10.90;99.90;;;;;;5036568;28;20175;-83
2023/12/10 09:56:02;;;;;;;30.77;8.00;;;10.90;99.90;;;;;;5034590;28;20641;-83
2023/12/10 09:58:28;;;;;;;31.03;7.60;;;10.90;99.90;;;;;;5033133;28;20619;-82
2023/12/10 10:00:53;;;;;;;27.10;7.03;;;11.00;99.90;;;;;;5033072;28;20174;-81
2023/12/10 10:03:20;;;;;;;33.60;7.73;;;11.00;99.90;;;;;;5036329;28;20170;-83
2023/12/10 10:05:46;;;;;;;31.07;7.07;;;11.10;99.90;;;;;;5033701;28;20709;-82
2023/12/10 10:08:12;;;;;;;26.60;7.10;;;11.00;99.90;;;;;;5032988;28;20201;-83
2023/12/10 10:10:38;;;;;;;28.20;7.60;;;11.10;99.90;;;;;;5032448;28;20189;-82
2023/12/10 10:13:07;;;;;;;32.07;6.87;;;11.00;99.90;;;;;;5034928;28;20181;-82
2023/12/10 10:15:32;;;;;;;30.20;6.80;;;10.90;99.90;;;;;;5032558;28;20174;-82
2023/12/10 10:17:58;;;;;;;35.23;7.83;;;11.00;99.90;;;;;;5034411;28;20566;-81
2023/12/10 10:20:26;;;;;;;33.03;7.93;;;10.90;99.90;;;;;;5032583;28;20256;-80
2023/12/10 10:22:52;;;;;;;32.57;7.03;;;10.90;99.90;;;;;;5030765;28;20182;-82
2023/12/10 10:25:19;;;;;;;28.10;7.00;;;10.90;99.90;;;;;;5032388;28;20173;-80
2023/12/10 10:27:44;;;;;;;28.90;8.10;;;11.00;99.90;;;;;;5032464;28;20296;-81
2023/12/10 10:30:11;;;;;;;26.23;7.13;;;11.00;99.90;;;;;;5032204;28;20841;-83
2023/12/10 10:32:39;;;;;;;30.73;6.80;;;11.00;99.90;;;;;;5031609;28;20548;-81
2023/12/10 10:35:06;;;;;;;29.63;7.20;;;11.00;99.90;;;;;;5031834;28;20181;-81
2023/12/10 10:37:32;;;;;;;34.20;6.37;;;10.90;99.90;;;;;;5033459;28;20178;-82
2023/12/10 10:39:58;;;;;;;26.03;7.30;;;10.90;99.90;;;;;;5031845;28;20646;-82
2023/12/10 10:42:23;;;;;;;28.37;7.43;;;11.00;99.90;;;;;;5031675;28;20180;-82
2023/12/10 10:44:50;;;;;;;28.67;6.90;;;11.10;99.90;;;;;;5030724;28;20178;-82
2023/12/10 10:47:19;;;;;;;24.07;6.40;;;11.10;99.90;;;;;;5032174;28;20213;-82
2023/12/10 10:49:51;;;;;;;26.43;7.10;;;11.10;99.90;;;;;;5032355;28;20650;-83
2023/12/10 10:52:21;;;;;;;31.50;7.47;;;11.10;99.90;;;;;;5031652;28;20220;-82
2023/12/10 10:54:48;;;;;;;24.43;6.47;;;11.20;99.90;;;;;;5032349;28;20213;-83
2023/12/10 10:57:29;;;;;;;30.13;7.00;;;11.20;99.90;;;;;;5032813;28;20756;-82
2023/12/10 10:59:55;;;;;;;25.83;6.67;;;11.20;99.90;;;;;;5036100;28;20233;-83
2023/12/10 11:02:21;;;;;;;32.60;7.33;;;11.30;99.90;;;;;;5053953;28;20602;-82
2023/12/10 11:04:49;;;;;;;27.90;7.30;;;11.20;99.90;;;;;;5051486;28;20593;-82
2023/12/10 11:07:15;;;;;;;28.20;7.37;;;11.30;99.90;;;;;;5051406;28;20240;-86
2023/12/10 11:10:02;;;;;;;25.23;7.30;;;11.30;99.90;;;;;;5050433;28;20188;-82
2023/12/10 11:12:41;;;;;;;30.40;7.63;;;11.30;99.90;;;;;;5051433;28;20196;-82
2023/12/10 11:15:28;;;;;;;30.63;7.70;;;11.40;99.90;;;;;;5051212;28;20179;-82
2023/12/10 11:17:58;;;;;;;23.93;6.60;;;11.50;99.90;;;;;;5050274;28;20180;-83
2023/12/10 11:20:34;;;;;;;26.07;7.23;;;11.50;99.90;;;;;;5052094;28;20629;-82
2023/12/10 11:23:05;;;;;;;29.10;6.77;;;11.50;99.90;;;;;;5051786;28;20172;-82
2023/12/10 11:25:31;;;;;;;28.37;7.10;;;11.50;99.90;;;;;;5051000;28;20199;-82
2023/12/10 11:27:57;;;;;;;22.23;6.07;;;11.50;99.90;;;;;;5051623;28;20238;-83
2023/12/10 11:30:24;;;;;;;28.67;7.07;;;11.40;99.90;;;;;;5051584;28;20169;-82
2023/12/10 11:32:50;;;;;;;32.13;7.33;;;11.30;99.90;;;;;;5051448;28;20564;-83
2023/12/10 11:35:16;;;;;;;32.77;8.03;;;11.40;99.90;;;;;;5050538;28;20309;-85
2023/12/10 11:37:42;;;;;;;29.20;7.20;;;11.40;99.90;;;;;;5052021;28;20207;-82
2023/12/10 11:40:09;;;;;;;22.70;6.93;;;11.40;99.90;;;;;;5051238;28;20178;-81
2023/12/10 11:42:35;;;;;;;30.10;6.57;;;11.40;99.90;;;;;;5049761;28;20204;-82
2023/12/10 11:45:02;;;;;;;25.43;6.60;;;11.30;99.90;;;;;;5035062;28;20189;-83
2023/12/10 11:47:28;;;;;;;22.70;6.03;;;11.30;99.90;;;;;;5032830;28;20218;-84
2023/12/10 11:49:57;;;;;;;25.37;6.03;;;11.30;99.90;;;;;;5025727;28;20174;-84
2023/12/10 11:52:23;;;;;;;29.40;6.67;;;11.30;99.90;;;;;;5039120;28;20177;-84
2023/12/10 11:54:50;;;;;;;28.30;6.87;;;11.40;99.90;;;;;;5041541;28;20236;-83
2023/12/10 11:57:16;;;;;;;27.70;6.30;;;11.50;99.90;;;;;;5044806;28;20268;-83
2023/12/10 11:59:48;;;;;;;30.43;6.57;;;11.40;99.90;;;;;;5042665;28;20270;-83
2023/12/10 12:02:17;;;;;;;24.60;5.97;;;11.50;99.90;;;;;;5043823;28;20177;-81
2023/12/10 12:04:43;;;;;;;22.53;6.17;;;11.50;99.90;;;;;;5033658;28;20177;-82
2023/12/10 12:07:24;;;;;;;26.87;5.77;;;11.50;99.90;;;;;;5041051;28;20252;-83
2023/12/10 12:09:51;;;;;;;21.90;6.33;;;11.50;99.90;;;;;;5040152;28;20267;-83
2023/12/10 12:12:20;;;;;;;32.60;7.47;;;11.40;99.90;;;;;;5042364;28;20228;-84
2023/12/10 12:14:46;;;;;;;25.83;6.27;;;11.40;99.90;;;;;;5026514;28;20190;-82
2023/12/10 12:17:14;;;;;;;29.13;5.33;;;11.40;99.90;;;;;;5032759;28;20328;-83
2023/12/10 12:19:40;;;;;;;21.80;6.30;;;11.40;99.90;;;;;;5032821;28;20180;-82
2023/12/10 12:22:06;;;;;;;20.20;5.97;;;11.50;99.90;;;;;;5035620;28;20227;-83
2023/12/10 12:24:32;;;;;;;25.07;5.70;;;11.40;99.90;;;;;;5031191;28;20182;-84
2023/12/10 12:26:57;;;;;;;24.03;5.93;;;11.40;99.90;;;;;;5031847;28;20582;-82
2023/12/10 12:29:23;;;;;;;26.67;6.30;;;11.40;99.90;;;;;;5029931;28;20270;-83
2023/12/10 12:31:49;;;;;;;22.50;5.33;;;11.50;99.90;;;;;;5030475;28;20183;-84
2023/12/10 12:34:14;;;;;;;22.67;6.43;;;11.40;99.90;;;;;;5031208;28;20178;-85
2023/12/10 12:36:40;;;;;;;27.57;6.00;;;11.50;99.90;;;;;;5030411;28;20178;-84